首页
METAR-TAF:

METAR-TAF

机场 :

门兴格拉德巴赫, 德国

纬度: 51-13-49N, 经度: 006-30-16E, 海拔: 38米

当前天气观测

该预报发布于33分钟前的14:50 UTC
风速7节,风向西转西南,在西南西转西北之间变化
温度 7°C
湿度 70%
气压 1025 hPa
能见度10公里或以上
散云层高于3700英尺

METAR: EDLN 181450Z 25007KT 220V290 9999 SCT037 07/02 Q1025

时间: 16:23 (15:23 UTC)

预报

该预报发布于1小时和23分钟前的14:00 UTC
预报有效从18日的 15点(UTC)到 18日的 24点(UTC)
风速7节,风向西
能见度10公里或以上
多云层高于3000英尺
几率 30% :
短暂存在
从 18日的 15点(UTC)到 18日的 18点(UTC)
多云层高于1400英尺, 积雨云.
阵雨, 小冰雹或雪球

TAF: EDLN 181400Z 1815/1824 28007KT 9999 BKN030 PROB30 TEMPO 1815/1818 SHRAGS BKN014CB

超过4000个机场的气象观测和天气预报(METAR&TAF报告)。

可查询的气象台以黄色和红色小点在地图上表示。

将鼠标移到小点上方,可查看气象台名称。

然后点击查看天气观测和预报。

如需切换地图:点击带黑十字的绿色按钮放大地图;点击带横线的绿色按钮缩小地图;或者点击绿色箭头查看邻近地区的地图。


METAR-TAF: